sensor_id;sensor_type;location;lat;lon;timestamp;P1;durP1;ratioP1;P2;durP2;ratioP2
4652;SDS011;9900;48.738;9.306;2024-01-06T00:01:32;7.53;;;4.00;;
4652;SDS011;9900;48.738;9.306;2024-01-06T00:04:01;8.70;;;4.57;;
4652;SDS011;9900;48.738;9.306;2024-01-06T00:06:30;9.80;;;5.30;;
4652;SDS011;9900;48.738;9.306;2024-01-06T00:08:59;11.03;;;5.70;;
4652;SDS011;9900;48.738;9.306;2024-01-06T00:11:27;10.83;;;5.23;;
4652;SDS011;9900;48.738;9.306;2024-01-06T00:13:56;11.40;;;4.60;;
4652;SDS011;9900;48.738;9.306;2024-01-06T00:16:25;7.40;;;4.50;;
4652;SDS011;9900;48.738;9.306;2024-01-06T00:18:57;7.87;;;3.80;;
4652;SDS011;9900;48.738;9.306;2024-01-06T00:21:27;7.07;;;4.40;;
4652;SDS011;9900;48.738;9.306;2024-01-06T00:23:56;9.07;;;4.63;;
4652;SDS011;9900;48.738;9.306;2024-01-06T00:26:25;17.23;;;4.40;;
4652;SDS011;9900;48.738;9.306;2024-01-06T00:28:54;8.67;;;4.50;;
4652;SDS011;9900;48.738;9.306;2024-01-06T00:31:22;14.27;;;4.60;;
4652;SDS011;9900;48.738;9.306;2024-01-06T00:33:51;8.23;;;4.70;;
4652;SDS011;9900;48.738;9.306;2024-01-06T00:36:22;10.07;;;4.50;;
4652;SDS011;9900;48.738;9.306;2024-01-06T00:38:50;6.80;;;4.30;;
4652;SDS011;9900;48.738;9.306;2024-01-06T00:41:19;6.97;;;4.43;;
4652;SDS011;9900;48.738;9.306;2024-01-06T00:43:48;7.40;;;4.07;;
4652;SDS011;9900;48.738;9.306;2024-01-06T00:46:17;7.13;;;3.70;;
4652;SDS011;9900;48.738;9.306;2024-01-06T00:48:46;9.23;;;4.37;;
4652;SDS011;9900;48.738;9.306;2024-01-06T00:51:15;5.87;;;3.87;;
4652;SDS011;9900;48.738;9.306;2024-01-06T00:53:45;6.07;;;3.60;;
4652;SDS011;9900;48.738;9.306;2024-01-06T00:56:14;11.27;;;3.77;;
4652;SDS011;9900;48.738;9.306;2024-01-06T00:58:43;6.70;;;3.60;;
4652;SDS011;9900;48.738;9.306;2024-01-06T01:01:12;7.63;;;3.77;;
4652;SDS011;9900;48.738;9.306;2024-01-06T01:03:41;5.03;;;3.00;;
4652;SDS011;9900;48.738;9.306;2024-01-06T01:06:10;10.83;;;3.97;;
4652;SDS011;9900;48.738;9.306;2024-01-06T01:08:39;6.27;;;3.33;;
4652;SDS011;9900;48.738;9.306;2024-01-06T01:11:09;8.40;;;3.43;;
4652;SDS011;9900;48.738;9.306;2024-01-06T01:13:38;6.90;;;3.50;;
4652;SDS011;9900;48.738;9.306;2024-01-06T01:16:07;4.37;;;2.70;;
4652;SDS011;9900;48.738;9.306;2024-01-06T01:18:36;5.80;;;3.10;;
4652;SDS011;9900;48.738;9.306;2024-01-06T01:21:05;4.40;;;3.03;;
4652;SDS011;9900;48.738;9.306;2024-01-06T01:23:34;8.00;;;2.90;;
4652;SDS011;9900;48.738;9.306;2024-01-06T01:26:02;4.80;;;3.20;;
4652;SDS011;9900;48.738;9.306;2024-01-06T01:28:33;5.07;;;3.30;;
4652;SDS011;9900;48.738;9.306;2024-01-06T01:31:01;11.10;;;3.73;;
4652;SDS011;9900;48.738;9.306;2024-01-06T01:33:31;7.40;;;3.27;;
4652;SDS011;9900;48.738;9.306;2024-01-06T01:36:00;8.70;;;3.40;;
4652;SDS011;9900;48.738;9.306;2024-01-06T01:38:29;7.20;;;2.93;;
4652;SDS011;9900;48.738;9.306;2024-01-06T01:40:58;3.50;;;2.87;;
4652;SDS011;9900;48.738;9.306;2024-01-06T01:43:27;6.00;;;2.77;;
4652;SDS011;9900;48.738;9.306;2024-01-06T01:45:58;5.40;;;2.57;;
4652;SDS011;9900;48.738;9.306;2024-01-06T01:48:28;8.73;;;2.90;;
4652;SDS011;9900;48.738;9.306;2024-01-06T01:50:57;9.53;;;2.40;;
4652;SDS011;9900;48.738;9.306;2024-01-06T01:53:26;5.43;;;2.40;;
4652;SDS011;9900;48.738;9.306;2024-01-06T01:55:55;4.20;;;2.77;;
4652;SDS011;9900;48.738;9.306;2024-01-06T01:58:24;7.73;;;2.80;;
4652;SDS011;9900;48.738;9.306;2024-01-06T02:00:53;5.10;;;2.40;;
4652;SDS011;9900;48.738;9.306;2024-01-06T02:03:23;6.40;;;2.50;;
4652;SDS011;9900;48.738;9.306;2024-01-06T02:05:52;5.30;;;2.40;;
4652;SDS011;9900;48.738;9.306;2024-01-06T02:08:21;3.07;;;2.23;;
4652;SDS011;9900;48.738;9.306;2024-01-06T02:10:51;3.83;;;2.20;;
4652;SDS011;9900;48.738;9.306;2024-01-06T02:13:21;6.50;;;2.10;;
4652;SDS011;9900;48.738;9.306;2024-01-06T02:15:50;4.00;;;2.00;;
4652;SDS011;9900;48.738;9.306;2024-01-06T02:18:20;2.50;;;1.70;;
4652;SDS011;9900;48.738;9.306;2024-01-06T02:20:51;6.00;;;2.10;;
4652;SDS011;9900;48.738;9.306;2024-01-06T02:23:22;3.30;;;1.63;;
4652;SDS011;9900;48.738;9.306;2024-01-06T02:25:51;3.77;;;1.93;;
4652;SDS011;9900;48.738;9.306;2024-01-06T02:28:20;6.83;;;2.00;;
4652;SDS011;9900;48.738;9.306;2024-01-06T02:30:49;8.63;;;2.17;;
4652;SDS011;9900;48.738;9.306;2024-01-06T02:33:18;4.87;;;1.90;;
4652;SDS011;9900;48.738;9.306;2024-01-06T02:35:47;5.33;;;1.70;;
4652;SDS011;9900;48.738;9.306;2024-01-06T02:38:16;5.67;;;2.07;;
4652;SDS011;9900;48.738;9.306;2024-01-06T02:40:46;2.30;;;1.67;;
4652;SDS011;9900;48.738;9.306;2024-01-06T02:43:15;4.83;;;2.30;;
4652;SDS011;9900;48.738;9.306;2024-01-06T02:45:44;5.60;;;2.00;;
4652;SDS011;9900;48.738;9.306;2024-01-06T02:48:15;7.20;;;1.87;;
4652;SDS011;9900;48.738;9.306;2024-01-06T02:50:44;5.40;;;1.80;;
4652;SDS011;9900;48.738;9.306;2024-01-06T02:53:13;10.53;;;2.73;;
4652;SDS011;9900;48.738;9.306;2024-01-06T02:55:42;5.70;;;1.60;;
4652;SDS011;9900;48.738;9.306;2024-01-06T02:58:12;2.90;;;1.30;;
4652;SDS011;9900;48.738;9.306;2024-01-06T03:00:41;4.53;;;1.87;;
4652;SDS011;9900;48.738;9.306;2024-01-06T03:03:09;6.33;;;1.30;;
4652;SDS011;9900;48.738;9.306;2024-01-06T03:05:38;5.13;;;1.30;;
4652;SDS011;9900;48.738;9.306;2024-01-06T03:08:07;3.57;;;1.30;;
4652;SDS011;9900;48.738;9.306;2024-01-06T03:10:36;2.50;;;1.67;;
4652;SDS011;9900;48.738;9.306;2024-01-06T03:13:05;4.83;;;1.43;;
4652;SDS011;9900;48.738;9.306;2024-01-06T03:15:35;4.53;;;1.70;;
4652;SDS011;9900;48.738;9.306;2024-01-06T03:18:04;4.63;;;2.07;;
4652;SDS011;9900;48.738;9.306;2024-01-06T03:20:33;3.47;;;1.50;;
4652;SDS011;9900;48.738;9.306;2024-01-06T03:23:02;5.30;;;2.43;;
4652;SDS011;9900;48.738;9.306;2024-01-06T03:25:32;3.90;;;1.70;;
4652;SDS011;9900;48.738;9.306;2024-01-06T03:28:00;3.20;;;1.40;;
4652;SDS011;9900;48.738;9.306;2024-01-06T03:30:29;3.73;;;1.60;;
4652;SDS011;9900;48.738;9.306;2024-01-06T03:33:00;9.43;;;1.67;;
4652;SDS011;9900;48.738;9.306;2024-01-06T03:35:29;2.67;;;1.40;;
4652;SDS011;9900;48.738;9.306;2024-01-06T03:37:58;3.30;;;1.60;;
4652;SDS011;9900;48.738;9.306;2024-01-06T03:40:26;2.60;;;1.57;;
4652;SDS011;9900;48.738;9.306;2024-01-06T03:42:55;2.30;;;1.57;;
4652;SDS011;9900;48.738;9.306;2024-01-06T03:45:24;4.70;;;1.57;;
4652;SDS011;9900;48.738;9.306;2024-01-06T03:47:53;1.97;;;1.30;;
4652;SDS011;9900;48.738;9.306;2024-01-06T03:50:23;4.50;;;1.30;;
4652;SDS011;9900;48.738;9.306;2024-01-06T03:52:52;3.47;;;1.30;;
4652;SDS011;9900;48.738;9.306;2024-01-06T03:55:20;3.30;;;1.27;;
4652;SDS011;9900;48.738;9.306;2024-01-06T03:57:49;5.67;;;2.10;;
4652;SDS011;9900;48.738;9.306;2024-01-06T04:00:18;7.63;;;1.93;;
4652;SDS011;9900;48.738;9.306;2024-01-06T04:02:47;2.90;;;1.40;;
4652;SDS011;9900;48.738;9.306;2024-01-06T04:05:16;3.87;;;1.67;;
4652;SDS011;9900;48.738;9.306;2024-01-06T04:07:46;4.87;;;2.10;;
4652;SDS011;9900;48.738;9.306;2024-01-06T04:10:15;3.20;;;2.03;;
4652;SDS011;9900;48.738;9.306;2024-01-06T04:12:44;2.93;;;1.93;;
4652;SDS011;9900;48.738;9.306;2024-01-06T04:15:12;3.20;;;1.90;;
4652;SDS011;9900;48.738;9.306;2024-01-06T04:17:41;3.20;;;1.70;;
4652;SDS011;9900;48.738;9.306;2024-01-06T04:20:10;4.70;;;1.60;;
4652;SDS011;9900;48.738;9.306;2024-01-06T04:22:40;4.77;;;1.73;;
4652;SDS011;9900;48.738;9.306;2024-01-06T04:25:10;3.53;;;1.70;;
4652;SDS011;9900;48.738;9.306;2024-01-06T04:27:39;3.20;;;1.87;;
4652;SDS011;9900;48.738;9.306;2024-01-06T04:30:08;1.70;;;1.60;;
4652;SDS011;9900;48.738;9.306;2024-01-06T04:32:38;2.30;;;1.60;;
4652;SDS011;9900;48.738;9.306;2024-01-06T04:35:07;5.80;;;1.63;;
4652;SDS011;9900;48.738;9.306;2024-01-06T04:37:36;4.90;;;1.70;;
4652;SDS011;9900;48.738;9.306;2024-01-06T04:40:05;4.70;;;1.83;;
4652;SDS011;9900;48.738;9.306;2024-01-06T04:42:36;6.70;;;1.70;;
4652;SDS011;9900;48.738;9.306;2024-01-06T04:45:05;4.73;;;1.67;;
4652;SDS011;9900;48.738;9.306;2024-01-06T04:47:35;12.40;;;2.10;;
4652;SDS011;9900;48.738;9.306;2024-01-06T04:50:04;5.00;;;2.17;;
4652;SDS011;9900;48.738;9.306;2024-01-06T04:52:34;9.07;;;2.00;;
4652;SDS011;9900;48.738;9.306;2024-01-06T04:55:03;7.87;;;2.80;;
4652;SDS011;9900;48.738;9.306;2024-01-06T04:57:32;5.10;;;1.80;;
4652;SDS011;9900;48.738;9.306;2024-01-06T05:00:03;6.20;;;1.97;;
4652;SDS011;9900;48.738;9.306;2024-01-06T05:02:32;4.43;;;1.70;;
4652;SDS011;9900;48.738;9.306;2024-01-06T05:05:02;7.27;;;1.50;;
4652;SDS011;9900;48.738;9.306;2024-01-06T05:07:31;3.07;;;1.20;;
4652;SDS011;9900;48.738;9.306;2024-01-06T05:10:00;2.20;;;1.60;;
4652;SDS011;9900;48.738;9.306;2024-01-06T05:12:29;4.90;;;1.77;;
4652;SDS011;9900;48.738;9.306;2024-01-06T05:14:58;4.30;;;1.60;;
4652;SDS011;9900;48.738;9.306;2024-01-06T05:17:28;4.87;;;1.70;;
4652;SDS011;9900;48.738;9.306;2024-01-06T05:19:57;4.50;;;1.77;;
4652;SDS011;9900;48.738;9.306;2024-01-06T05:22:26;3.83;;;1.97;;
4652;SDS011;9900;48.738;9.306;2024-01-06T05:24:54;4.73;;;1.83;;
4652;SDS011;9900;48.738;9.306;2024-01-06T05:27:23;3.00;;;2.03;;
4652;SDS011;9900;48.738;9.306;2024-01-06T05:29:52;7.50;;;2.23;;
4652;SDS011;9900;48.738;9.306;2024-01-06T05:32:21;3.00;;;2.07;;
4652;SDS011;9900;48.738;9.306;2024-01-06T05:34:51;8.97;;;1.87;;
4652;SDS011;9900;48.738;9.306;2024-01-06T05:37:20;4.57;;;2.63;;
4652;SDS011;9900;48.738;9.306;2024-01-06T05:39:49;6.20;;;2.40;;
4652;SDS011;9900;48.738;9.306;2024-01-06T05:42:18;4.20;;;2.60;;
4652;SDS011;9900;48.738;9.306;2024-01-06T05:44:47;7.07;;;2.60;;
4652;SDS011;9900;48.738;9.306;2024-01-06T05:47:15;3.80;;;2.20;;
4652;SDS011;9900;48.738;9.306;2024-01-06T05:49:44;4.33;;;2.30;;
4652;SDS011;9900;48.738;9.306;2024-01-06T05:52:14;6.43;;;2.33;;
4652;SDS011;9900;48.738;9.306;2024-01-06T05:54:43;8.40;;;3.03;;
4652;SDS011;9900;48.738;9.306;2024-01-06T05:57:12;2.13;;;1.87;;
4652;SDS011;9900;48.738;9.306;2024-01-06T05:59:41;3.40;;;2.50;;
4652;SDS011;9900;48.738;9.306;2024-01-06T06:02:10;8.47;;;2.90;;
4652;SDS011;9900;48.738;9.306;2024-01-06T06:04:38;4.83;;;2.33;;
4652;SDS011;9900;48.738;9.306;2024-01-06T06:07:07;3.90;;;2.77;;
4652;SDS011;9900;48.738;9.306;2024-01-06T06:09:37;4.27;;;1.67;;
4652;SDS011;9900;48.738;9.306;2024-01-06T06:12:07;4.50;;;2.13;;
4652;SDS011;9900;48.738;9.306;2024-01-06T06:14:36;6.90;;;2.23;;
4652;SDS011;9900;48.738;9.306;2024-01-06T06:17:05;6.77;;;2.40;;
4652;SDS011;9900;48.738;9.306;2024-01-06T06:19:34;4.47;;;2.37;;
4652;SDS011;9900;48.738;9.306;2024-01-06T06:22:03;6.53;;;1.97;;
4652;SDS011;9900;48.738;9.306;2024-01-06T06:24:32;6.77;;;2.70;;
4652;SDS011;9900;48.738;9.306;2024-01-06T06:27:02;5.43;;;2.87;;
4652;SDS011;9900;48.738;9.306;2024-01-06T06:29:31;2.70;;;1.90;;
4652;SDS011;9900;48.738;9.306;2024-01-06T06:32:00;4.70;;;2.37;;
4652;SDS011;9900;48.738;9.306;2024-01-06T06:34:28;4.27;;;2.10;;
4652;SDS011;9900;48.738;9.306;2024-01-06T06:36:57;3.97;;;1.90;;
4652;SDS011;9900;48.738;9.306;2024-01-06T06:39:26;6.40;;;2.60;;
4652;SDS011;9900;48.738;9.306;2024-01-06T06:41:54;4.07;;;2.10;;
4652;SDS011;9900;48.738;9.306;2024-01-06T06:44:24;5.20;;;1.83;;
4652;SDS011;9900;48.738;9.306;2024-01-06T06:46:53;4.97;;;2.10;;
4652;SDS011;9900;48.738;9.306;2024-01-06T06:49:22;4.50;;;1.80;;
4652;SDS011;9900;48.738;9.306;2024-01-06T06:51:51;7.17;;;2.57;;
4652;SDS011;9900;48.738;9.306;2024-01-06T06:54:20;2.10;;;1.90;;
4652;SDS011;9900;48.738;9.306;2024-01-06T06:56:48;4.77;;;2.10;;
4652;SDS011;9900;48.738;9.306;2024-01-06T06:59:17;9.00;;;2.80;;
4652;SDS011;9900;48.738;9.306;2024-01-06T07:01:47;3.53;;;1.70;;
4652;SDS011;9900;48.738;9.306;2024-01-06T07:04:16;3.70;;;2.10;;
4652;SDS011;9900;48.738;9.306;2024-01-06T07:06:45;6.70;;;2.10;;
4652;SDS011;9900;48.738;9.306;2024-01-06T07:09:14;5.37;;;2.20;;
4652;SDS011;9900;48.738;9.306;2024-01-06T07:11:43;4.70;;;2.37;;
4652;SDS011;9900;48.738;9.306;2024-01-06T07:14:11;4.37;;;2.10;;
4652;SDS011;9900;48.738;9.306;2024-01-06T07:16:40;3.03;;;2.00;;
4652;SDS011;9900;48.738;9.306;2024-01-06T07:19:10;6.27;;;2.20;;
4652;SDS011;9900;48.738;9.306;2024-01-06T07:21:39;5.13;;;2.17;;
4652;SDS011;9900;48.738;9.306;2024-01-06T07:24:08;3.40;;;1.90;;
4652;SDS011;9900;48.738;9.306;2024-01-06T07:26:37;8.10;;;1.90;;
4652;SDS011;9900;48.738;9.306;2024-01-06T07:29:06;2.87;;;2.00;;
4652;SDS011;9900;48.738;9.306;2024-01-06T07:31:35;5.17;;;2.13;;
4652;SDS011;9900;48.738;9.306;2024-01-06T07:34:04;5.37;;;1.97;;
4652;SDS011;9900;48.738;9.306;2024-01-06T07:36:34;4.07;;;2.40;;
4652;SDS011;9900;48.738;9.306;2024-01-06T07:39:03;2.60;;;2.03;;
4652;SDS011;9900;48.738;9.306;2024-01-06T07:41:33;5.40;;;1.97;;
4652;SDS011;9900;48.738;9.306;2024-01-06T07:44:01;6.93;;;2.20;;
4652;SDS011;9900;48.738;9.306;2024-01-06T07:46:30;4.63;;;2.23;;
4652;SDS011;9900;48.738;9.306;2024-01-06T07:48:59;5.53;;;2.07;;
4652;SDS011;9900;48.738;9.306;2024-01-06T07:51:28;3.93;;;2.20;;
4652;SDS011;9900;48.738;9.306;2024-01-06T07:53:58;4.83;;;2.10;;
4652;SDS011;9900;48.738;9.306;2024-01-06T07:56:27;5.77;;;1.90;;
4652;SDS011;9900;48.738;9.306;2024-01-06T07:58:56;5.07;;;1.87;;
4652;SDS011;9900;48.738;9.306;2024-01-06T08:01:25;2.40;;;1.50;;
4652;SDS011;9900;48.738;9.306;2024-01-06T08:03:54;3.00;;;1.97;;
4652;SDS011;9900;48.738;9.306;2024-01-06T08:06:23;7.60;;;2.70;;
4652;SDS011;9900;48.738;9.306;2024-01-06T08:08:52;9.50;;;2.40;;
4652;SDS011;9900;48.738;9.306;2024-01-06T08:11:23;2.73;;;1.77;;
4652;SDS011;9900;48.738;9.306;2024-01-06T08:13:52;5.10;;;3.03;;
4652;SDS011;9900;48.738;9.306;2024-01-06T08:16:21;3.00;;;1.57;;
4652;SDS011;9900;48.738;9.306;2024-01-06T08:18:50;5.07;;;1.80;;
4652;SDS011;9900;48.738;9.306;2024-01-06T08:21:18;3.83;;;1.37;;
4652;SDS011;9900;48.738;9.306;2024-01-06T08:23:47;4.70;;;1.90;;
4652;SDS011;9900;48.738;9.306;2024-01-06T08:26:16;6.47;;;2.43;;
4652;SDS011;9900;48.738;9.306;2024-01-06T08:28:47;5.70;;;2.77;;
4652;SDS011;9900;48.738;9.306;2024-01-06T08:31:15;4.50;;;2.10;;
4652;SDS011;9900;48.738;9.306;2024-01-06T08:33:44;6.00;;;2.00;;
4652;SDS011;9900;48.738;9.306;2024-01-06T08:36:13;4.23;;;2.83;;
4652;SDS011;9900;48.738;9.306;2024-01-06T08:38:42;4.83;;;2.10;;
4652;SDS011;9900;48.738;9.306;2024-01-06T08:41:11;7.00;;;2.30;;
4652;SDS011;9900;48.738;9.306;2024-01-06T08:43:40;8.57;;;1.97;;
4652;SDS011;9900;48.738;9.306;2024-01-06T08:46:10;4.30;;;1.93;;
4652;SDS011;9900;48.738;9.306;2024-01-06T08:48:39;4.70;;;1.60;;
4652;SDS011;9900;48.738;9.306;2024-01-06T08:51:08;5.00;;;1.47;;
4652;SDS011;9900;48.738;9.306;2024-01-06T08:53:37;2.93;;;1.87;;
4652;SDS011;9900;48.738;9.306;2024-01-06T08:56:06;7.47;;;2.10;;
4652;SDS011;9900;48.738;9.306;2024-01-06T08:58:35;7.33;;;2.80;;
4652;SDS011;9900;48.738;9.306;2024-01-06T09:01:03;7.00;;;1.50;;
4652;SDS011;9900;48.738;9.306;2024-01-06T09:03:34;2.10;;;1.60;;
4652;SDS011;9900;48.738;9.306;2024-01-06T09:06:03;7.50;;;2.00;;
4652;SDS011;9900;48.738;9.306;2024-01-06T09:08:32;5.03;;;1.77;;
4652;SDS011;9900;48.738;9.306;2024-01-06T09:11:01;3.70;;;1.80;;
4652;SDS011;9900;48.738;9.306;2024-01-06T09:13:30;1.50;;;1.40;;
4652;SDS011;9900;48.738;9.306;2024-01-06T09:15:59;5.70;;;2.60;;
4652;SDS011;9900;48.738;9.306;2024-01-06T09:18:29;4.50;;;1.90;;
4652;SDS011;9900;48.738;9.306;2024-01-06T09:21:01;4.80;;;2.23;;
4652;SDS011;9900;48.738;9.306;2024-01-06T09:23:30;4.40;;;2.17;;
4652;SDS011;9900;48.738;9.306;2024-01-06T09:25:59;4.07;;;2.30;;
4652;SDS011;9900;48.738;9.306;2024-01-06T09:28:28;3.00;;;1.80;;
4652;SDS011;9900;48.738;9.306;2024-01-06T09:30:56;4.03;;;2.13;;
4652;SDS011;9900;48.738;9.306;2024-01-06T09:33:25;4.13;;;2.30;;
4652;SDS011;9900;48.738;9.306;2024-01-06T09:35:54;7.00;;;2.63;;
4652;SDS011;9900;48.738;9.306;2024-01-06T09:38:25;3.50;;;1.87;;
4652;SDS011;9900;48.738;9.306;2024-01-06T09:40:53;4.10;;;2.50;;
4652;SDS011;9900;48.738;9.306;2024-01-06T09:43:24;6.60;;;2.30;;
4652;SDS011;9900;48.738;9.306;2024-01-06T09:45:56;4.70;;;2.87;;
4652;SDS011;9900;48.738;9.306;2024-01-06T09:48:28;4.80;;;2.93;;
4652;SDS011;9900;48.738;9.306;2024-01-06T09:50:58;4.10;;;3.00;;
4652;SDS011;9900;48.738;9.306;2024-01-06T09:53:33;5.77;;;3.10;;
4652;SDS011;9900;48.738;9.306;2024-01-06T09:56:03;4.27;;;3.07;;
4652;SDS011;9900;48.738;9.306;2024-01-06T09:58:33;3.67;;;2.13;;
4652;SDS011;9900;48.738;9.306;2024-01-06T10:01:04;3.00;;;1.90;;
4652;SDS011;9900;48.738;9.306;2024-01-06T10:03:36;3.00;;;1.90;;
4652;SDS011;9900;48.738;9.306;2024-01-06T10:06:06;2.10;;;1.90;;
4652;SDS011;9900;48.738;9.306;2024-01-06T10:08:38;5.90;;;2.10;;
4652;SDS011;9900;48.738;9.306;2024-01-06T10:11:08;3.33;;;2.00;;
4652;SDS011;9900;48.738;9.306;2024-01-06T10:13:37;4.33;;;1.70;;
4652;SDS011;9900;48.738;9.306;2024-01-06T10:16:06;1.50;;;1.40;;
4652;SDS011;9900;48.738;9.306;2024-01-06T10:18:35;1.73;;;1.30;;
4652;SDS011;9900;48.738;9.306;2024-01-06T10:21:04;1.50;;;1.40;;
4652;SDS011;9900;48.738;9.306;2024-01-06T10:23:33;2.43;;;1.30;;
4652;SDS011;9900;48.738;9.306;2024-01-06T10:26:05;1.30;;;1.10;;
4652;SDS011;9900;48.738;9.306;2024-01-06T10:28:34;1.57;;;1.47;;
4652;SDS011;9900;48.738;9.306;2024-01-06T10:31:02;1.30;;;1.20;;
4652;SDS011;9900;48.738;9.306;2024-01-06T10:33:32;1.57;;;1.20;;
4652;SDS011;9900;48.738;9.306;2024-01-06T10:36:01;3.13;;;1.30;;
4652;SDS011;9900;48.738;9.306;2024-01-06T10:38:30;3.53;;;1.23;;
4652;SDS011;9900;48.738;9.306;2024-01-06T10:40:59;1.27;;;0.90;;
4652;SDS011;9900;48.738;9.306;2024-01-06T10:43:36;2.20;;;0.80;;
4652;SDS011;9900;48.738;9.306;2024-01-06T10:46:08;1.60;;;1.07;;
4652;SDS011;9900;48.738;9.306;2024-01-06T10:48:39;1.73;;;1.10;;
4652;SDS011;9900;48.738;9.306;2024-01-06T10:51:12;1.00;;;1.00;;
4652;SDS011;9900;48.738;9.306;2024-01-06T10:53:42;1.10;;;1.00;;
4652;SDS011;9900;48.738;9.306;2024-01-06T10:56:11;2.53;;;1.00;;
4652;SDS011;9900;48.738;9.306;2024-01-06T10:58:45;1.87;;;1.10;;
4652;SDS011;9900;48.738;9.306;2024-01-06T11:01:17;0.87;;;0.87;;
4652;SDS011;9900;48.738;9.306;2024-01-06T11:03:53;1.00;;;1.00;;
4652;SDS011;9900;48.738;9.306;2024-01-06T11:06:22;2.03;;;1.17;;
4652;SDS011;9900;48.738;9.306;2024-01-06T11:08:53;3.13;;;1.40;;
4652;SDS011;9900;48.738;9.306;2024-01-06T11:11:25;2.40;;;1.60;;
4652;SDS011;9900;48.738;9.306;2024-01-06T11:13:59;1.37;;;1.27;;
4652;SDS011;9900;48.738;9.306;2024-01-06T11:16:46;1.40;;;1.30;;
4652;SDS011;9900;48.738;9.306;2024-01-06T11:25:03;2.30;;;1.00;;
4652;SDS011;9900;48.738;9.306;2024-01-06T11:27:33;1.47;;;1.37;;
4652;SDS011;9900;48.738;9.306;2024-01-06T11:30:05;2.80;;;1.40;;
4652;SDS011;9900;48.738;9.306;2024-01-06T11:32:35;1.50;;;1.10;;
4652;SDS011;9900;48.738;9.306;2024-01-06T11:35:07;1.70;;;1.30;;
4652;SDS011;9900;48.738;9.306;2024-01-06T11:37:39;2.87;;;1.30;;
4652;SDS011;9900;48.738;9.306;2024-01-06T11:40:24;2.83;;;1.30;;
4652;SDS011;9900;48.738;9.306;2024-01-06T11:42:57;1.37;;;1.27;;
4652;SDS011;9900;48.738;9.306;2024-01-06T11:45:29;1.20;;;1.10;;
4652;SDS011;9900;48.738;9.306;2024-01-06T11:47:58;1.50;;;1.40;;
4652;SDS011;9900;48.738;9.306;2024-01-06T11:50:31;2.90;;;2.33;;
4652;SDS011;9900;48.738;9.306;2024-01-06T11:53:01;3.67;;;1.30;;
4652;SDS011;9900;48.738;9.306;2024-01-06T11:55:30;2.10;;;1.10;;
4652;SDS011;9900;48.738;9.306;2024-01-06T11:58:00;2.83;;;1.50;;
4652;SDS011;9900;48.738;9.306;2024-01-06T12:00:33;1.27;;;1.17;;
4652;SDS011;9900;48.738;9.306;2024-01-06T12:03:04;1.40;;;1.30;;
4652;SDS011;9900;48.738;9.306;2024-01-06T12:05:33;2.00;;;1.40;;
4652;SDS011;9900;48.738;9.306;2024-01-06T12:08:03;1.00;;;1.00;;
4652;SDS011;9900;48.738;9.306;2024-01-06T12:10:35;1.50;;;1.40;;
4652;SDS011;9900;48.738;9.306;2024-01-06T12:13:04;3.57;;;1.30;;
4652;SDS011;9900;48.738;9.306;2024-01-06T12:15:37;5.10;;;3.93;;
4652;SDS011;9900;48.738;9.306;2024-01-06T12:18:08;2.23;;;1.70;;
4652;SDS011;9900;48.738;9.306;2024-01-06T12:20:37;2.70;;;2.37;;
4652;SDS011;9900;48.738;9.306;2024-01-06T12:23:06;3.67;;;2.30;;
4652;SDS011;9900;48.738;9.306;2024-01-06T12:25:35;2.00;;;1.90;;
4652;SDS011;9900;48.738;9.306;2024-01-06T12:28:07;1.67;;;1.57;;
4652;SDS011;9900;48.738;9.306;2024-01-06T12:30:38;1.87;;;1.77;;
4652;SDS011;9900;48.738;9.306;2024-01-06T12:33:07;1.70;;;1.60;;
4652;SDS011;9900;48.738;9.306;2024-01-06T12:35:36;1.83;;;1.73;;
4652;SDS011;9900;48.738;9.306;2024-01-06T12:38:05;2.27;;;2.10;;
4652;SDS011;9900;48.738;9.306;2024-01-06T12:40:35;2.20;;;1.87;;
4652;SDS011;9900;48.738;9.306;2024-01-06T12:43:05;1.80;;;1.70;;
4652;SDS011;9900;48.738;9.306;2024-01-06T12:45:34;1.70;;;1.60;;
4652;SDS011;9900;48.738;9.306;2024-01-06T12:48:05;2.07;;;1.87;;
4652;SDS011;9900;48.738;9.306;2024-01-06T12:50:35;2.27;;;2.07;;
4652;SDS011;9900;48.738;9.306;2024-01-06T12:53:04;2.10;;;1.90;;
4652;SDS011;9900;48.738;9.306;2024-01-06T12:55:32;1.90;;;1.80;;
4652;SDS011;9900;48.738;9.306;2024-01-06T12:58:02;2.33;;;2.13;;
4652;SDS011;9900;48.738;9.306;2024-01-06T13:00:31;2.50;;;2.30;;
4652;SDS011;9900;48.738;9.306;2024-01-06T13:03:05;2.33;;;2.13;;
4652;SDS011;9900;48.738;9.306;2024-01-06T13:05:35;2.40;;;2.10;;
4652;SDS011;9900;48.738;9.306;2024-01-06T13:08:05;3.10;;;1.90;;
4652;SDS011;9900;48.738;9.306;2024-01-06T13:10:34;2.37;;;2.23;;
4652;SDS011;9900;48.738;9.306;2024-01-06T13:13:03;3.67;;;2.30;;
4652;SDS011;9900;48.738;9.306;2024-01-06T13:15:31;2.13;;;1.93;;
4652;SDS011;9900;48.738;9.306;2024-01-06T13:18:00;2.07;;;1.87;;
4652;SDS011;9900;48.738;9.306;2024-01-06T13:20:30;2.10;;;1.90;;
4652;SDS011;9900;48.738;9.306;2024-01-06T13:22:59;1.87;;;1.77;;
4652;SDS011;9900;48.738;9.306;2024-01-06T13:25:28;5.63;;;2.03;;
4652;SDS011;9900;48.738;9.306;2024-01-06T13:27:57;4.60;;;2.03;;
4652;SDS011;9900;48.738;9.306;2024-01-06T13:30:25;3.30;;;1.90;;
4652;SDS011;9900;48.738;9.306;2024-01-06T13:32:55;2.60;;;2.40;;
4652;SDS011;9900;48.738;9.306;2024-01-06T13:35:24;2.60;;;1.67;;
4652;SDS011;9900;48.738;9.306;2024-01-06T13:37:54;2.60;;;2.40;;
4652;SDS011;9900;48.738;9.306;2024-01-06T13:40:23;2.40;;;2.23;;
4652;SDS011;9900;48.738;9.306;2024-01-06T13:42:52;3.23;;;2.70;;
4652;SDS011;9900;48.738;9.306;2024-01-06T13:45:22;3.30;;;2.60;;
4652;SDS011;9900;48.738;9.306;2024-01-06T13:47:51;3.33;;;2.77;;
4652;SDS011;9900;48.738;9.306;2024-01-06T13:50:20;5.80;;;3.40;;
4652;SDS011;9900;48.738;9.306;2024-01-06T13:52:49;3.30;;;2.70;;
4652;SDS011;9900;48.738;9.306;2024-01-06T13:55:19;5.37;;;3.00;;
4652;SDS011;9900;48.738;9.306;2024-01-06T13:57:48;3.53;;;3.00;;
4652;SDS011;9900;48.738;9.306;2024-01-06T14:00:17;3.97;;;3.57;;
4652;SDS011;9900;48.738;9.306;2024-01-06T14:02:47;3.70;;;3.37;;
4652;SDS011;9900;48.738;9.306;2024-01-06T14:05:16;2.80;;;2.60;;
4652;SDS011;9900;48.738;9.306;2024-01-06T14:07:47;3.63;;;3.33;;
4652;SDS011;9900;48.738;9.306;2024-01-06T14:10:19;3.90;;;3.50;;
4652;SDS011;9900;48.738;9.306;2024-01-06T14:12:48;6.87;;;3.60;;
4652;SDS011;9900;48.738;9.306;2024-01-06T14:15:17;5.00;;;3.77;;
4652;SDS011;9900;48.738;9.306;2024-01-06T14:17:46;3.70;;;3.40;;
4652;SDS011;9900;48.738;9.306;2024-01-06T14:20:17;5.80;;;4.00;;
4652;SDS011;9900;48.738;9.306;2024-01-06T14:22:46;4.50;;;4.10;;
4652;SDS011;9900;48.738;9.306;2024-01-06T14:25:15;5.30;;;4.40;;
4652;SDS011;9900;48.738;9.306;2024-01-06T14:27:47;4.73;;;4.00;;
4652;SDS011;9900;48.738;9.306;2024-01-06T14:30:16;6.60;;;4.47;;
4652;SDS011;9900;48.738;9.306;2024-01-06T14:32:46;6.90;;;4.60;;
4652;SDS011;9900;48.738;9.306;2024-01-06T14:35:15;5.13;;;4.67;;
4652;SDS011;9900;48.738;9.306;2024-01-06T14:37:44;5.70;;;4.27;;
4652;SDS011;9900;48.738;9.306;2024-01-06T14:40:13;4.90;;;4.40;;
4652;SDS011;9900;48.738;9.306;2024-01-06T14:42:42;5.50;;;4.30;;
4652;SDS011;9900;48.738;9.306;2024-01-06T14:45:12;6.30;;;4.67;;
4652;SDS011;9900;48.738;9.306;2024-01-06T14:47:41;6.20;;;4.80;;
4652;SDS011;9900;48.738;9.306;2024-01-06T14:50:10;7.10;;;4.60;;
4652;SDS011;9900;48.738;9.306;2024-01-06T14:52:39;7.07;;;5.20;;
4652;SDS011;9900;48.738;9.306;2024-01-06T14:55:08;6.20;;;4.73;;
4652;SDS011;9900;48.738;9.306;2024-01-06T14:57:37;10.97;;;4.23;;
4652;SDS011;9900;48.738;9.306;2024-01-06T15:00:07;11.37;;;5.37;;
4652;SDS011;9900;48.738;9.306;2024-01-06T15:02:39;6.83;;;4.40;;
4652;SDS011;9900;48.738;9.306;2024-01-06T15:05:08;7.67;;;5.70;;
4652;SDS011;9900;48.738;9.306;2024-01-06T15:07:37;10.13;;;4.90;;
4652;SDS011;9900;48.738;9.306;2024-01-06T15:10:06;4.53;;;4.00;;
4652;SDS011;9900;48.738;9.306;2024-01-06T15:12:37;5.97;;;4.50;;
4652;SDS011;9900;48.738;9.306;2024-01-06T15:15:07;6.13;;;4.33;;
4652;SDS011;9900;48.738;9.306;2024-01-06T15:17:36;5.30;;;4.40;;
4652;SDS011;9900;48.738;9.306;2024-01-06T15:20:07;4.90;;;4.27;;
4652;SDS011;9900;48.738;9.306;2024-01-06T15:22:37;6.70;;;5.03;;
4652;SDS011;9900;48.738;9.306;2024-01-06T15:25:08;5.67;;;5.10;;
4652;SDS011;9900;48.738;9.306;2024-01-06T15:27:37;5.80;;;5.20;;
4652;SDS011;9900;48.738;9.306;2024-01-06T15:30:07;5.47;;;4.90;;
4652;SDS011;9900;48.738;9.306;2024-01-06T15:32:37;6.23;;;4.90;;
4652;SDS011;9900;48.738;9.306;2024-01-06T15:35:08;8.60;;;4.90;;